sensor_id;sensor_type;location;lat;lon;timestamp;pressure;altitude;pressure_sealevel;temperature;humidity
43115;BME280;28727;50.068;14.452;2023-12-20T00:00:18;98909.59;;;7.49;55.36
43115;BME280;28727;50.068;14.452;2023-12-20T00:02:55;98903.34;;;7.42;55.87
43115;BME280;28727;50.068;14.452;2023-12-20T00:05:27;98897.09;;;7.43;55.94
43115;BME280;28727;50.068;14.452;2023-12-20T00:07:59;98902.16;;;7.36;56.10
43115;BME280;28727;50.068;14.452;2023-12-20T00:10:31;98900.34;;;7.37;56.38
43115;BME280;28727;50.068;14.452;2023-12-20T00:13:03;98891.63;;;7.36;56.38
43115;BME280;28727;50.068;14.452;2023-12-20T00:15:35;98884.09;;;7.33;56.85
43115;BME280;28727;50.068;14.452;2023-12-20T00:18:06;98889.97;;;7.27;57.74
43115;BME280;28727;50.068;14.452;2023-12-20T00:20:39;98900.34;;;7.29;57.06
43115;BME280;28727;50.068;14.452;2023-12-20T00:23:10;98887.50;;;7.26;58.40
43115;BME280;28727;50.068;14.452;2023-12-20T00:25:46;98886.50;;;7.19;58.06
43115;BME280;28727;50.068;14.452;2023-12-20T00:28:21;98887.94;;;7.13;58.34
43115;BME280;28727;50.068;14.452;2023-12-20T00:30:53;98884.53;;;7.13;58.69
43115;BME280;28727;50.068;14.452;2023-12-20T00:33:26;98886.31;;;7.12;59.61
43115;BME280;28727;50.068;14.452;2023-12-20T00:36:02;98899.75;;;7.09;59.80
43115;BME280;28727;50.068;14.452;2023-12-20T00:38:33;98898.28;;;7.07;60.64
43115;BME280;28727;50.068;14.452;2023-12-20T00:41:05;98905.50;;;7.05;60.87
43115;BME280;28727;50.068;14.452;2023-12-20T00:43:37;98885.47;;;7.04;60.93
43115;BME280;28727;50.068;14.452;2023-12-20T00:46:09;98877.91;;;7.01;61.49
43115;BME280;28727;50.068;14.452;2023-12-20T00:48:46;98875.72;;;6.96;61.45
43115;BME280;28727;50.068;14.452;2023-12-20T00:51:19;98885.75;;;6.92;62.89
43115;BME280;28727;50.068;14.452;2023-12-20T00:53:51;98874.41;;;6.92;63.34
43115;BME280;28727;50.068;14.452;2023-12-20T00:56:26;98860.31;;;6.93;62.42
43115;BME280;28727;50.068;14.452;2023-12-20T00:58:58;98861.28;;;6.92;63.26
43115;BME280;28727;50.068;14.452;2023-12-20T01:01:29;98855.88;;;6.93;62.58
43115;BME280;28727;50.068;14.452;2023-12-20T01:04:01;98838.97;;;6.96;63.19
43115;BME280;28727;50.068;14.452;2023-12-20T01:06:33;98845.03;;;6.88;64.19
43115;BME280;28727;50.068;14.452;2023-12-20T01:09:05;98844.22;;;6.88;63.88
43115;BME280;28727;50.068;14.452;2023-12-20T01:11:40;98851.88;;;6.81;65.20
43115;BME280;28727;50.068;14.452;2023-12-20T01:14:13;98851.56;;;6.84;64.61
43115;BME280;28727;50.068;14.452;2023-12-20T01:16:45;98852.72;;;6.90;65.31
43115;BME280;28727;50.068;14.452;2023-12-20T01:19:17;98852.03;;;6.80;65.58
43115;BME280;28727;50.068;14.452;2023-12-20T01:21:49;98850.56;;;6.77;66.12
43115;BME280;28727;50.068;14.452;2023-12-20T01:24:21;98831.50;;;6.75;67.29
43115;BME280;28727;50.068;14.452;2023-12-20T01:26:53;98831.38;;;6.77;67.10
43115;BME280;28727;50.068;14.452;2023-12-20T01:29:25;98826.94;;;6.77;66.33
43115;BME280;28727;50.068;14.452;2023-12-20T01:32:00;98825.94;;;6.78;66.69
43115;BME280;28727;50.068;14.452;2023-12-20T01:34:31;98814.63;;;6.78;67.86
43115;BME280;28727;50.068;14.452;2023-12-20T01:37:04;98811.84;;;6.79;68.11
43115;BME280;28727;50.068;14.452;2023-12-20T01:39:36;98799.69;;;6.78;67.81
43115;BME280;28727;50.068;14.452;2023-12-20T01:42:07;98795.94;;;6.81;67.41
43115;BME280;28727;50.068;14.452;2023-12-20T01:44:42;98787.56;;;6.77;68.58
43115;BME280;28727;50.068;14.452;2023-12-20T01:47:14;98784.13;;;6.77;68.13
43115;BME280;28727;50.068;14.452;2023-12-20T01:49:46;98772.47;;;6.71;68.41
43115;BME280;28727;50.068;14.452;2023-12-20T01:52:22;98781.31;;;6.70;69.28
43115;BME280;28727;50.068;14.452;2023-12-20T01:54:57;98775.09;;;6.71;70.58
43115;BME280;28727;50.068;14.452;2023-12-20T01:57:34;98775.72;;;6.73;70.59
43115;BME280;28727;50.068;14.452;2023-12-20T02:00:08;98779.50;;;6.71;69.89
43115;BME280;28727;50.068;14.452;2023-12-20T02:02:41;98768.63;;;6.66;69.82
43115;BME280;28727;50.068;14.452;2023-12-20T02:05:13;98772.41;;;6.63;70.50
43115;BME280;28727;50.068;14.452;2023-12-20T02:07:45;98774.06;;;6.64;70.35
43115;BME280;28727;50.068;14.452;2023-12-20T02:10:17;98774.22;;;6.63;71.19
43115;BME280;28727;50.068;14.452;2023-12-20T02:12:58;98769.47;;;6.66;70.99
43115;BME280;28727;50.068;14.452;2023-12-20T02:15:33;98768.63;;;6.66;71.14
43115;BME280;28727;50.068;14.452;2023-12-20T02:18:05;98763.03;;;6.61;71.26
43115;BME280;28727;50.068;14.452;2023-12-20T02:20:39;98777.13;;;6.51;72.24
43115;BME280;28727;50.068;14.452;2023-12-20T02:23:11;98770.38;;;6.49;72.04
43115;BME280;28727;50.068;14.452;2023-12-20T02:25:42;98773.81;;;6.49;72.63
43115;BME280;28727;50.068;14.452;2023-12-20T02:28:17;98775.19;;;6.53;72.00
43115;BME280;28727;50.068;14.452;2023-12-20T02:30:48;98773.66;;;6.51;72.65
43115;BME280;28727;50.068;14.452;2023-12-20T02:33:21;98772.03;;;6.50;73.02
43115;BME280;28727;50.068;14.452;2023-12-20T02:35:53;98771.88;;;6.51;72.44
43115;BME280;28727;50.068;14.452;2023-12-20T02:38:28;98760.34;;;6.44;73.72
43115;BME280;28727;50.068;14.452;2023-12-20T02:41:00;98770.03;;;6.44;72.65
43115;BME280;28727;50.068;14.452;2023-12-20T02:43:32;98770.38;;;6.49;72.80
43115;BME280;28727;50.068;14.452;2023-12-20T02:46:04;98765.09;;;6.41;73.36
43115;BME280;28727;50.068;14.452;2023-12-20T02:48:36;98766.91;;;6.40;73.84
43115;BME280;28727;50.068;14.452;2023-12-20T02:51:10;98762.63;;;6.39;73.31
43115;BME280;28727;50.068;14.452;2023-12-20T02:53:45;98766.09;;;6.40;73.54
43115;BME280;28727;50.068;14.452;2023-12-20T02:56:17;98768.69;;;6.40;74.63
43115;BME280;28727;50.068;14.452;2023-12-20T02:58:49;98764.94;;;6.42;74.92
43115;BME280;28727;50.068;14.452;2023-12-20T03:01:21;98761.84;;;6.47;74.23
43115;BME280;28727;50.068;14.452;2023-12-20T03:03:56;98760.88;;;6.48;73.92
43115;BME280;28727;50.068;14.452;2023-12-20T03:06:28;98761.34;;;6.43;74.21
43115;BME280;28727;50.068;14.452;2023-12-20T03:09:03;98756.25;;;6.42;75.18
43115;BME280;28727;50.068;14.452;2023-12-20T03:11:35;98762.84;;;6.46;74.83
43115;BME280;28727;50.068;14.452;2023-12-20T03:14:08;98761.03;;;6.46;75.03
43115;BME280;28727;50.068;14.452;2023-12-20T03:16:40;98754.28;;;6.44;75.02
43115;BME280;28727;50.068;14.452;2023-12-20T03:19:12;98758.56;;;6.45;75.06
43115;BME280;28727;50.068;14.452;2023-12-20T03:21:47;98752.16;;;6.39;75.39
43115;BME280;28727;50.068;14.452;2023-12-20T03:24:18;98751.16;;;6.40;75.05
43115;BME280;28727;50.068;14.452;2023-12-20T03:26:50;98758.50;;;6.37;76.96
43115;BME280;28727;50.068;14.452;2023-12-20T03:29:22;98754.91;;;6.38;76.81
43115;BME280;28727;50.068;14.452;2023-12-20T03:31:58;98752.16;;;6.39;76.74
43115;BME280;28727;50.068;14.452;2023-12-20T03:34:30;98756.41;;;6.40;76.92
43115;BME280;28727;50.068;14.452;2023-12-20T03:37:04;98752.00;;;6.41;76.24
43115;BME280;28727;50.068;14.452;2023-12-20T03:39:35;98753.94;;;6.39;76.30
43115;BME280;28727;50.068;14.452;2023-12-20T03:42:08;98745.78;;;6.42;76.29
43115;BME280;28727;50.068;14.452;2023-12-20T03:44:40;98747.56;;;6.41;77.45
43115;BME280;28727;50.068;14.452;2023-12-20T03:47:12;98750.84;;;6.43;76.96
43115;BME280;28727;50.068;14.452;2023-12-20T03:49:43;98744.63;;;6.44;76.13
43115;BME280;28727;50.068;14.452;2023-12-20T03:55:10;98749.53;;;6.39;75.45
43115;BME280;28727;50.068;14.452;2023-12-20T03:57:42;98752.78;;;6.33;76.13
43115;BME280;28727;50.068;14.452;2023-12-20T04:00:16;98747.66;;;6.32;76.13
43115;BME280;28727;50.068;14.452;2023-12-20T04:02:47;98749.78;;;6.28;76.97
43115;BME280;28727;50.068;14.452;2023-12-20T04:05:19;98751.88;;;6.25;76.76
43115;BME280;28727;50.068;14.452;2023-12-20T04:07:52;98754.97;;;6.20;77.33
43115;BME280;28727;50.068;14.452;2023-12-20T04:10:27;98757.09;;;6.16;77.88
43115;BME280;28727;50.068;14.452;2023-12-20T04:12:59;98746.47;;;6.18;77.28
43115;BME280;28727;50.068;14.452;2023-12-20T04:15:31;98750.91;;;6.18;77.70
43115;BME280;28727;50.068;14.452;2023-12-20T04:18:03;98759.59;;;6.18;78.01
43115;BME280;28727;50.068;14.452;2023-12-20T04:20:35;98754.16;;;6.20;77.70
43115;BME280;28727;50.068;14.452;2023-12-20T04:23:07;98757.47;;;6.22;77.62
43115;BME280;28727;50.068;14.452;2023-12-20T04:25:39;98756.50;;;6.23;78.27
43115;BME280;28727;50.068;14.452;2023-12-20T04:28:11;98762.22;;;6.26;78.04
43115;BME280;28727;50.068;14.452;2023-12-20T04:30:44;98761.59;;;6.32;77.00
43115;BME280;28727;50.068;14.452;2023-12-20T04:33:16;98758.63;;;6.27;77.46
43115;BME280;28727;50.068;14.452;2023-12-20T04:35:48;98761.75;;;6.31;76.56
43115;BME280;28727;50.068;14.452;2023-12-20T04:38:20;98764.22;;;6.24;77.00
43115;BME280;28727;50.068;14.452;2023-12-20T04:40:52;98763.69;;;6.21;77.06
43115;BME280;28727;50.068;14.452;2023-12-20T04:43:24;98768.72;;;6.14;77.44
43115;BME280;28727;50.068;14.452;2023-12-20T04:45:58;98759.72;;;6.16;77.63
43115;BME280;28727;50.068;14.452;2023-12-20T04:48:30;98762.72;;;6.22;77.45
43115;BME280;28727;50.068;14.452;2023-12-20T04:51:02;98760.75;;;6.24;77.53
43115;BME280;28727;50.068;14.452;2023-12-20T04:53:34;98762.56;;;6.23;77.42
43115;BME280;28727;50.068;14.452;2023-12-20T04:56:10;98759.09;;;6.23;78.11
43115;BME280;28727;50.068;14.452;2023-12-20T04:58:43;98768.78;;;6.22;77.79
43115;BME280;28727;50.068;14.452;2023-12-20T05:01:14;98765.00;;;6.25;77.36
43115;BME280;28727;50.068;14.452;2023-12-20T05:03:47;98772.50;;;6.20;76.96
43115;BME280;28727;50.068;14.452;2023-12-20T05:06:19;98762.50;;;6.15;77.41
43115;BME280;28727;50.068;14.452;2023-12-20T05:08:51;98753.16;;;6.12;77.46
43115;BME280;28727;50.068;14.452;2023-12-20T05:11:23;98765.44;;;6.12;77.02
43115;BME280;28727;50.068;14.452;2023-12-20T05:13:55;98763.59;;;6.04;77.50
43115;BME280;28727;50.068;14.452;2023-12-20T05:16:30;98765.69;;;6.01;77.72
43115;BME280;28727;50.068;14.452;2023-12-20T05:19:02;98763.06;;;6.01;78.12
43115;BME280;28727;50.068;14.452;2023-12-20T05:21:38;98774.84;;;5.97;78.25
43115;BME280;28727;50.068;14.452;2023-12-20T05:24:10;98770.41;;;5.97;78.20
43115;BME280;28727;50.068;14.452;2023-12-20T05:26:42;98763.84;;;5.93;77.89
43115;BME280;28727;50.068;14.452;2023-12-20T05:29:14;98769.38;;;5.90;78.13
43115;BME280;28727;50.068;14.452;2023-12-20T05:31:47;98779.72;;;5.92;78.57
43115;BME280;28727;50.068;14.452;2023-12-20T05:34:22;98780.22;;;5.95;78.29
43115;BME280;28727;50.068;14.452;2023-12-20T05:37:00;98776.94;;;5.93;78.07
43115;BME280;28727;50.068;14.452;2023-12-20T05:39:39;98784.28;;;5.90;78.20
43115;BME280;28727;50.068;14.452;2023-12-20T05:42:11;98782.66;;;5.89;77.97
43115;BME280;28727;50.068;14.452;2023-12-20T05:44:46;98791.75;;;5.85;77.96
43115;BME280;28727;50.068;14.452;2023-12-20T05:47:21;98780.91;;;5.80;77.92
43115;BME280;28727;50.068;14.452;2023-12-20T05:49:53;98784.81;;;5.75;77.77
43115;BME280;28727;50.068;14.452;2023-12-20T05:52:25;98786.47;;;5.76;78.87
43115;BME280;28727;50.068;14.452;2023-12-20T05:54:57;98787.06;;;5.70;78.73
43115;BME280;28727;50.068;14.452;2023-12-20T05:57:32;98788.69;;;5.71;78.35
43115;BME280;28727;50.068;14.452;2023-12-20T06:00:07;98782.13;;;5.67;79.02
43115;BME280;28727;50.068;14.452;2023-12-20T06:02:44;98776.06;;;5.67;78.84
43115;BME280;28727;50.068;14.452;2023-12-20T06:05:16;98783.91;;;5.67;78.91
43115;BME280;28727;50.068;14.452;2023-12-20T06:07:48;98788.34;;;5.66;79.12
43115;BME280;28727;50.068;14.452;2023-12-20T06:10:21;98779.50;;;5.67;79.09
43115;BME280;28727;50.068;14.452;2023-12-20T06:12:54;98769.69;;;5.69;79.19
43115;BME280;28727;50.068;14.452;2023-12-20T06:15:27;98791.63;;;5.68;79.09
43115;BME280;28727;50.068;14.452;2023-12-20T06:18:02;98794.25;;;5.68;78.83
43115;BME280;28727;50.068;14.452;2023-12-20T06:20:33;98802.25;;;5.67;78.98
43115;BME280;28727;50.068;14.452;2023-12-20T06:23:06;98803.75;;;5.69;78.54
43115;BME280;28727;50.068;14.452;2023-12-20T06:25:38;98800.19;;;5.70;78.66
43115;BME280;28727;50.068;14.452;2023-12-20T06:28:14;98802.47;;;5.73;78.40
43115;BME280;28727;50.068;14.452;2023-12-20T06:30:46;98808.41;;;5.75;78.58
43115;BME280;28727;50.068;14.452;2023-12-20T06:33:24;98803.16;;;5.75;78.66
43115;BME280;28727;50.068;14.452;2023-12-20T06:35:57;98795.91;;;5.69;78.81
43115;BME280;28727;50.068;14.452;2023-12-20T06:38:30;98800.47;;;5.67;78.38
43115;BME280;28727;50.068;14.452;2023-12-20T06:41:05;98794.25;;;5.68;78.77
43115;BME280;28727;50.068;14.452;2023-12-20T06:43:40;98816.72;;;5.71;79.27
43115;BME280;28727;50.068;14.452;2023-12-20T06:46:20;98806.88;;;5.73;78.68
43115;BME280;28727;50.068;14.452;2023-12-20T06:48:52;98822.63;;;5.73;78.51
43115;BME280;28727;50.068;14.452;2023-12-20T06:51:24;98818.28;;;5.64;79.15
43115;BME280;28727;50.068;14.452;2023-12-20T06:53:57;98830.44;;;5.65;78.79
43115;BME280;28727;50.068;14.452;2023-12-20T06:56:31;98839.09;;;5.65;78.41
43115;BME280;28727;50.068;14.452;2023-12-20T06:59:08;98840.22;;;5.63;81.40
43115;BME280;28727;50.068;14.452;2023-12-20T07:01:41;98839.47;;;5.70;79.47
43115;BME280;28727;50.068;14.452;2023-12-20T07:04:13;98848.44;;;5.68;79.16
43115;BME280;28727;50.068;14.452;2023-12-20T07:06:45;98856.31;;;5.68;78.84
43115;BME280;28727;50.068;14.452;2023-12-20T07:09:20;98857.22;;;5.59;79.46
43115;BME280;28727;50.068;14.452;2023-12-20T07:11:55;98853.91;;;5.57;79.52
43115;BME280;28727;50.068;14.452;2023-12-20T07:14:29;98862.75;;;5.56;79.53
43115;BME280;28727;50.068;14.452;2023-12-20T07:17:08;98864.69;;;5.54;79.51
43115;BME280;28727;50.068;14.452;2023-12-20T07:19:46;98874.88;;;5.57;79.45
43115;BME280;28727;50.068;14.452;2023-12-20T07:22:18;98877.34;;;5.58;80.21
43115;BME280;28727;50.068;14.452;2023-12-20T07:24:50;98880.47;;;5.62;79.30
43115;BME280;28727;50.068;14.452;2023-12-20T07:27:28;98879.38;;;5.64;79.63
43115;BME280;28727;50.068;14.452;2023-12-20T07:30:00;98883.66;;;5.65;79.62
43115;BME280;28727;50.068;14.452;2023-12-20T07:32:32;98887.47;;;5.71;79.37
43115;BME280;28727;50.068;14.452;2023-12-20T07:35:04;98890.09;;;5.71;79.08
43115;BME280;28727;50.068;14.452;2023-12-20T07:37:38;98899.56;;;5.72;79.46
43115;BME280;28727;50.068;14.452;2023-12-20T07:40:10;98895.16;;;5.72;79.27
43115;BME280;28727;50.068;14.452;2023-12-20T07:42:43;98906.31;;;5.74;78.90
43115;BME280;28727;50.068;14.452;2023-12-20T07:45:15;98899.56;;;5.72;78.95
43115;BME280;28727;50.068;14.452;2023-12-20T07:47:48;98904.66;;;5.73;79.23
43115;BME280;28727;50.068;14.452;2023-12-20T07:50:22;98907.97;;;5.75;79.11
43115;BME280;28727;50.068;14.452;2023-12-20T07:52:54;98905.88;;;5.79;78.25
43115;BME280;28727;50.068;14.452;2023-12-20T07:55:26;98922.97;;;5.83;78.67
43115;BME280;28727;50.068;14.452;2023-12-20T07:57:59;98909.44;;;5.88;80.79
43115;BME280;28727;50.068;14.452;2023-12-20T08:00:30;98909.84;;;6.01;79.30
43115;BME280;28727;50.068;14.452;2023-12-20T08:03:02;98904.84;;;6.07;78.03
43115;BME280;28727;50.068;14.452;2023-12-20T08:05:41;98900.59;;;6.06;78.17
43115;BME280;28727;50.068;14.452;2023-12-20T08:08:13;98908.16;;;6.09;77.86
43115;BME280;28727;50.068;14.452;2023-12-20T08:10:45;98896.00;;;6.08;77.44
43115;BME280;28727;50.068;14.452;2023-12-20T08:13:17;98896.31;;;6.05;77.64
43115;BME280;28727;50.068;14.452;2023-12-20T08:15:53;98898.72;;;5.99;77.71
43115;BME280;28727;50.068;14.452;2023-12-20T08:18:25;98900.66;;;5.97;77.73
43115;BME280;28727;50.068;14.452;2023-12-20T08:20:57;98914.81;;;6.04;78.69
43115;BME280;28727;50.068;14.452;2023-12-20T08:23:29;98902.63;;;6.12;77.73
43115;BME280;28727;50.068;14.452;2023-12-20T08:26:07;98912.28;;;6.12;77.19
43115;BME280;28727;50.068;14.452;2023-12-20T08:28:39;98920.78;;;6.14;77.21
43115;BME280;28727;50.068;14.452;2023-12-20T08:31:15;98920.16;;;6.12;77.16
43115;BME280;28727;50.068;14.452;2023-12-20T08:33:49;98919.13;;;6.13;76.91
43115;BME280;28727;50.068;14.452;2023-12-20T08:36:21;98929.03;;;6.19;76.90
43115;BME280;28727;50.068;14.452;2023-12-20T08:38:55;98934.28;;;6.19;76.59
43115;BME280;28727;50.068;14.452;2023-12-20T08:41:27;98923.50;;;6.22;76.54
43115;BME280;28727;50.068;14.452;2023-12-20T08:43:58;98921.38;;;6.26;76.19
43115;BME280;28727;50.068;14.452;2023-12-20T08:46:30;98923.84;;;6.27;76.09
43115;BME280;28727;50.068;14.452;2023-12-20T08:49:03;98924.31;;;6.23;75.99
43115;BME280;28727;50.068;14.452;2023-12-20T08:51:35;98929.19;;;6.18;75.63
43115;BME280;28727;50.068;14.452;2023-12-20T08:54:13;98927.09;;;6.21;76.00
43115;BME280;28727;50.068;14.452;2023-12-20T08:56:49;98918.25;;;6.22;76.17
43115;BME280;28727;50.068;14.452;2023-12-20T08:59:21;98914.81;;;6.22;75.76
43115;BME280;28727;50.068;14.452;2023-12-20T09:01:53;98909.84;;;6.18;75.96
43115;BME280;28727;50.068;14.452;2023-12-20T09:04:26;98924.25;;;6.14;76.25
43115;BME280;28727;50.068;14.452;2023-12-20T09:06:59;98931.13;;;6.15;75.99
43115;BME280;28727;50.068;14.452;2023-12-20T09:09:31;98922.97;;;6.18;76.64
43115;BME280;28727;50.068;14.452;2023-12-20T09:12:07;98918.09;;;6.24;75.44
43115;BME280;28727;50.068;14.452;2023-12-20T09:14:38;98912.88;;;6.24;75.85
43115;BME280;28727;50.068;14.452;2023-12-20T09:17:10;98913.84;;;6.23;75.67
43115;BME280;28727;50.068;14.452;2023-12-20T09:19:44;98922.22;;;6.26;75.38
43115;BME280;28727;50.068;14.452;2023-12-20T09:22:22;98918.75;;;6.26;75.57
43115;BME280;28727;50.068;14.452;2023-12-20T09:24:54;98924.22;;;6.32;74.87
43115;BME280;28727;50.068;14.452;2023-12-20T09:27:26;98926.69;;;6.34;74.79
43115;BME280;28727;50.068;14.452;2023-12-20T09:29:58;98922.88;;;6.28;74.90
43115;BME280;28727;50.068;14.452;2023-12-20T09:32:31;98924.22;;;6.32;75.07
43115;BME280;28727;50.068;14.452;2023-12-20T09:35:03;98929.41;;;6.42;74.31
43115;BME280;28727;50.068;14.452;2023-12-20T09:37:37;98924.34;;;6.48;74.00
43115;BME280;28727;50.068;14.452;2023-12-20T09:40:11;98918.91;;;6.42;74.42
43115;BME280;28727;50.068;14.452;2023-12-20T09:42:52;98924.16;;;6.42;74.63
43115;BME280;28727;50.068;14.452;2023-12-20T09:45:28;98927.44;;;6.44;74.63
43115;BME280;28727;50.068;14.452;2023-12-20T09:48:04;98925.34;;;6.47;73.98
43115;BME280;28727;50.068;14.452;2023-12-20T09:50:43;98926.53;;;6.53;74.35
43115;BME280;28727;50.068;14.452;2023-12-20T09:53:24;98919.22;;;6.65;73.93
43115;BME280;28727;50.068;14.452;2023-12-20T09:56:02;98919.59;;;6.78;73.70
43115;BME280;28727;50.068;14.452;2023-12-20T09:58:37;98922.69;;;6.99;73.06
43115;BME280;28727;50.068;14.452;2023-12-20T10:01:09;98923.91;;;7.13;72.09
43115;BME280;28727;50.068;14.452;2023-12-20T10:03:45;98906.56;;;7.28;71.46
43115;BME280;28727;50.068;14.452;2023-12-20T10:06:19;98894.25;;;7.36;71.05
43115;BME280;28727;50.068;14.452;2023-12-20T10:08:52;98910.25;;;7.51;69.85
43115;BME280;28727;50.068;14.452;2023-12-20T10:11:24;98913.19;;;7.40;70.69
43115;BME280;28727;50.068;14.452;2023-12-20T10:14:00;98903.97;;;7.36;70.30
43115;BME280;28727;50.068;14.452;2023-12-20T10:16:37;98895.28;;;7.44;70.52
43115;BME280;28727;50.068;14.452;2023-12-20T10:19:09;98889.09;;;8.74;67.82
43115;BME280;28727;50.068;14.452;2023-12-20T10:21:41;98898.22;;;9.02;65.95
43115;BME280;28727;50.068;14.452;2023-12-20T10:24:19;98904.97;;;9.05;64.67
43115;BME280;28727;50.068;14.452;2023-12-20T10:27:07;98897.03;;;8.58;65.69
43115;BME280;28727;50.068;14.452;2023-12-20T10:29:39;98894.91;;;8.21;66.75
43115;BME280;28727;50.068;14.452;2023-12-20T10:32:31;98893.41;;;7.94;66.96
43115;BME280;28727;50.068;14.452;2023-12-20T10:35:04;98891.56;;;7.78;67.82
43115;BME280;28727;50.068;14.452;2023-12-20T10:37:39;98891.72;;;7.69;67.46
43115;BME280;28727;50.068;14.452;2023-12-20T10:40:13;98889.75;;;7.63;67.69
43115;BME280;28727;50.068;14.452;2023-12-20T10:42:45;98892.03;;;7.58;68.14
43115;BME280;28727;50.068;14.452;2023-12-20T10:45:18;98884.13;;;7.50;67.83
43115;BME280;28727;50.068;14.452;2023-12-20T10:47:50;98876.41;;;7.40;68.11
43115;BME280;28727;50.068;14.452;2023-12-20T10:50:26;98870.47;;;7.38;68.78
43115;BME280;28727;50.068;14.452;2023-12-20T10:53:02;98854.38;;;7.33;68.38
43115;BME280;28727;50.068;14.452;2023-12-20T10:55:34;98849.94;;;7.33;69.16
43115;BME280;28727;50.068;14.452;2023-12-20T10:58:09;98853.25;;;7.35;68.89
43115;BME280;28727;50.068;14.452;2023-12-20T11:00:43;98837.84;;;7.65;68.37
43115;BME280;28727;50.068;14.452;2023-12-20T11:03:18;98854.09;;;9.04;64.79
43115;BME280;28727;50.068;14.452;2023-12-20T11:05:58;98847.66;;;9.92;61.15
43115;BME280;28727;50.068;14.452;2023-12-20T11:08:49;98866.28;;;9.90;61.93
43115;BME280;28727;50.068;14.452;2023-12-20T11:12:01;98849.78;;;11.94;56.44
43115;BME280;28727;50.068;14.452;2023-12-20T11:14:41;98856.56;;;13.75;51.70
43115;BME280;28727;50.068;14.452;2023-12-20T11:17:14;98838.59;;;15.40;51.66
43115;BME280;28727;50.068;14.452;2023-12-20T11:22:33;98829.19;;;18.19;46.28
43115;BME280;28727;50.068;14.452;2023-12-20T11:25:12;98833.28;;;18.79;42.48
43115;BME280;28727;50.068;14.452;2023-12-20T11:28:07;98822.88;;;19.18;38.57
43115;BME280;28727;50.068;14.452;2023-12-20T11:30:45;98821.13;;;19.63;38.65
43115;BME280;28727;50.068;14.452;2023-12-20T11:33:22;98815.97;;;18.70;39.81
43115;BME280;28727;50.068;14.452;2023-12-20T11:36:00;98815.88;;;16.74;41.00
43115;BME280;28727;50.068;14.452;2023-12-20T11:38:36;98820.75;;;16.10;43.90
43115;BME280;28727;50.068;14.452;2023-12-20T11:41:12;98813.72;;;15.14;46.99
43115;BME280;28727;50.068;14.452;2023-12-20T11:43:46;98818.44;;;14.42;47.24
43115;BME280;28727;50.068;14.452;2023-12-20T11:46:19;98822.88;;;13.82;47.53
43115;BME280;28727;50.068;14.452;2023-12-20T11:48:54;98833.06;;;13.11;49.64
43115;BME280;28727;50.068;14.452;2023-12-20T11:51:27;98817.00;;;12.85;51.25
43115;BME280;28727;50.068;14.452;2023-12-20T11:54:00;98822.00;;;13.01;49.60
43115;BME280;28727;50.068;14.452;2023-12-20T11:56:31;98821.97;;;12.94;49.27
43115;BME280;28727;50.068;14.452;2023-12-20T11:59:03;98812.31;;;12.80;49.35
43115;BME280;28727;50.068;14.452;2023-12-20T12:01:54;98799.75;;;13.56;47.84
43115;BME280;28727;50.068;14.452;2023-12-20T12:04:35;98794.50;;;15.19;44.46
43115;BME280;28727;50.068;14.452;2023-12-20T12:07:07;98791.25;;;16.11;42.51
43115;BME280;28727;50.068;14.452;2023-12-20T12:09:43;98781.06;;;16.69;40.61
43115;BME280;28727;50.068;14.452;2023-12-20T12:12:17;98784.84;;;17.46;39.88
43115;BME280;28727;50.068;14.452;2023-12-20T12:14:49;98786.00;;;17.80;37.65
43115;BME280;28727;50.068;14.452;2023-12-20T12:17:21;98791.38;;;17.92;36.98
43115;BME280;28727;50.068;14.452;2023-12-20T12:20:06;98779.78;;;18.10;36.32
43115;BME280;28727;50.068;14.452;2023-12-20T12:22:38;98781.91;;;17.66;36.60
43115;BME280;28727;50.068;14.452;2023-12-20T12:25:13;98782.13;;;17.35;36.70
43115;BME280;28727;50.068;14.452;2023-12-20T12:27:46;98772.50;;;17.15;37.20
43115;BME280;28727;50.068;14.452;2023-12-20T12:30:20;98776.22;;;17.14;36.77
43115;BME280;28727;50.068;14.452;2023-12-20T12:32:53;98768.38;;;16.22;37.77
43115;BME280;28727;50.068;14.452;2023-12-20T12:35:28;98761.78;;;15.05;40.20
43115;BME280;28727;50.068;14.452;2023-12-20T12:38:03;98774.69;;;14.11;41.86
43115;BME280;28727;50.068;14.452;2023-12-20T12:40:35;98766.91;;;13.57;42.80
43115;BME280;28727;50.068;14.452;2023-12-20T12:43:09;98758.53;;;12.93;44.09
43115;BME280;28727;50.068;14.452;2023-12-20T12:45:41;98763.00;;;12.45;44.98
43115;BME280;28727;50.068;14.452;2023-12-20T12:48:15;98765.53;;;12.25;45.78
43115;BME280;28727;50.068;14.452;2023-12-20T12:50:47;98759.75;;;12.15;45.66
43115;BME280;28727;50.068;14.452;2023-12-20T12:53:19;98754.56;;;12.00;46.23
43115;BME280;28727;50.068;14.452;2023-12-20T12:55:50;98766.41;;;12.04;46.88
43115;BME280;28727;50.068;14.452;2023-12-20T12:58:23;98766.69;;;11.88;46.13
43115;BME280;28727;50.068;14.452;2023-12-20T13:00:57;98764.34;;;11.57;46.86
43115;BME280;28727;50.068;14.452;2023-12-20T13:03:30;98769.44;;;11.59;47.61
43115;BME280;28727;50.068;14.452;2023-12-20T13:06:03;98761.50;;;11.59;48.13
43115;BME280;28727;50.068;14.452;2023-12-20T13:08:37;98756.59;;;11.56;47.83
43115;BME280;28727;50.068;14.452;2023-12-20T13:11:09;98766.28;;;11.27;49.03
43115;BME280;28727;50.068;14.452;2023-12-20T13:13:41;98758.84;;;11.16;49.64
43115;BME280;28727;50.068;14.452;2023-12-20T13:16:13;98759.16;;;10.92;49.10
43115;BME280;28727;50.068;14.452;2023-12-20T13:18:57;98760.22;;;10.61;49.80
43115;BME280;28727;50.068;14.452;2023-12-20T13:21:31;98754.31;;;10.45;50.12
43115;BME280;28727;50.068;14.452;2023-12-20T13:24:04;98753.66;;;10.28;49.67
43115;BME280;28727;50.068;14.452;2023-12-20T13:26:37;98765.75;;;9.85;49.72
43115;BME280;28727;50.068;14.452;2023-12-20T13:29:09;98768.66;;;9.53;50.29
43115;BME280;28727;50.068;14.452;2023-12-20T13:31:41;98782.66;;;9.30;51.06
43115;BME280;28727;50.068;14.452;2023-12-20T13:34:13;98775.03;;;9.13;51.71
43115;BME280;28727;50.068;14.452;2023-12-20T13:36:49;98777.44;;;8.91;51.85